sensor_id;sensor_type;location;lat;lon;timestamp;P1;durP1;ratioP1;P2;durP2;ratioP2
57535;SDS011;43361;49.790;8.960;2023-04-03T00:09:19;4.22;;;1.90;;
57535;SDS011;43361;49.790;8.960;2023-04-03T00:19:20;2.95;;;1.63;;
57535;SDS011;43361;49.790;8.960;2023-04-03T00:29:22;3.37;;;1.30;;
57535;SDS011;43361;49.790;8.960;2023-04-03T00:39:22;2.83;;;1.40;;
57535;SDS011;43361;49.790;8.960;2023-04-03T00:49:24;3.72;;;1.67;;
57535;SDS011;43361;49.790;8.960;2023-04-03T00:59:25;3.65;;;1.42;;
57535;SDS011;43361;49.790;8.960;2023-04-03T01:09:28;2.65;;;1.40;;
57535;SDS011;43361;49.790;8.960;2023-04-03T01:19:29;4.28;;;1.55;;
57535;SDS011;43361;49.790;8.960;2023-04-03T01:29:31;2.00;;;1.10;;
57535;SDS011;43361;49.790;8.960;2023-04-03T01:39:33;5.18;;;1.20;;
57535;SDS011;43361;49.790;8.960;2023-04-03T01:49:33;3.85;;;1.17;;
57535;SDS011;43361;49.790;8.960;2023-04-03T01:59:35;2.70;;;1.25;;
57535;SDS011;43361;49.790;8.960;2023-04-03T02:09:35;2.90;;;1.20;;
57535;SDS011;43361;49.790;8.960;2023-04-03T02:19:37;2.70;;;1.15;;
57535;SDS011;43361;49.790;8.960;2023-04-03T02:29:37;3.30;;;1.00;;
57535;SDS011;43361;49.790;8.960;2023-04-03T02:39:39;3.08;;;1.40;;
57535;SDS011;43361;49.790;8.960;2023-04-03T02:49:40;2.35;;;1.10;;
57535;SDS011;43361;49.790;8.960;2023-04-03T02:59:41;1.88;;;0.90;;
57535;SDS011;43361;49.790;8.960;2023-04-03T03:09:42;2.78;;;1.10;;
57535;SDS011;43361;49.790;8.960;2023-04-03T03:19:44;1.63;;;0.80;;
57535;SDS011;43361;49.790;8.960;2023-04-03T03:29:45;1.63;;;0.95;;
57535;SDS011;43361;49.790;8.960;2023-04-03T03:39:47;2.28;;;1.00;;
57535;SDS011;43361;49.790;8.960;2023-04-03T03:49:47;1.77;;;0.90;;
57535;SDS011;43361;49.790;8.960;2023-04-03T03:59:49;2.47;;;0.82;;
57535;SDS011;43361;49.790;8.960;2023-04-03T04:09:51;1.63;;;0.80;;
57535;SDS011;43361;49.790;8.960;2023-04-03T04:19:53;1.70;;;0.80;;
57535;SDS011;43361;49.790;8.960;2023-04-03T04:29:53;1.48;;;0.80;;
57535;SDS011;43361;49.790;8.960;2023-04-03T04:39:55;1.67;;;0.90;;
57535;SDS011;43361;49.790;8.960;2023-04-03T04:49:56;1.80;;;0.70;;
57535;SDS011;43361;49.790;8.960;2023-04-03T04:59:57;1.17;;;0.50;;
57535;SDS011;43361;49.790;8.960;2023-04-03T05:09:58;1.73;;;0.70;;
57535;SDS011;43361;49.790;8.960;2023-04-03T05:19:59;2.15;;;1.02;;
57535;SDS011;43361;49.790;8.960;2023-04-03T05:30:00;1.48;;;0.93;;
57535;SDS011;43361;49.790;8.960;2023-04-03T05:40:02;7.80;;;2.17;;
57535;SDS011;43361;49.790;8.960;2023-04-03T05:50:02;14.63;;;3.38;;
57535;SDS011;43361;49.790;8.960;2023-04-03T06:00:05;12.50;;;3.30;;
57535;SDS011;43361;49.790;8.960;2023-04-03T06:10:06;16.08;;;4.55;;
57535;SDS011;43361;49.790;8.960;2023-04-03T06:20:09;19.02;;;4.30;;
57535;SDS011;43361;49.790;8.960;2023-04-03T06:30:09;22.95;;;4.88;;
57535;SDS011;43361;49.790;8.960;2023-04-03T06:40:14;13.35;;;4.15;;
57535;SDS011;43361;49.790;8.960;2023-04-03T06:50:15;14.13;;;4.72;;
57535;SDS011;43361;49.790;8.960;2023-04-03T07:00:17;19.83;;;4.07;;
57535;SDS011;43361;49.790;8.960;2023-04-03T07:10:18;18.02;;;4.10;;
57535;SDS011;43361;49.790;8.960;2023-04-03T07:20:20;11.95;;;4.28;;
57535;SDS011;43361;49.790;8.960;2023-04-03T07:30:21;18.48;;;4.43;;
57535;SDS011;43361;49.790;8.960;2023-04-03T07:40:23;10.93;;;4.05;;
57535;SDS011;43361;49.790;8.960;2023-04-03T07:50:23;11.27;;;3.85;;
57535;SDS011;43361;49.790;8.960;2023-04-03T08:00:25;11.18;;;3.60;;
57535;SDS011;43361;49.790;8.960;2023-04-03T08:10:26;10.10;;;3.50;;
57535;SDS011;43361;49.790;8.960;2023-04-03T08:20:27;9.40;;;3.28;;
57535;SDS011;43361;49.790;8.960;2023-04-03T08:30:28;10.15;;;3.20;;
57535;SDS011;43361;49.790;8.960;2023-04-03T08:40:30;10.43;;;3.75;;
57535;SDS011;43361;49.790;8.960;2023-04-03T08:50:31;8.73;;;3.38;;
57535;SDS011;43361;49.790;8.960;2023-04-03T09:00:37;9.45;;;3.33;;
57535;SDS011;43361;49.790;8.960;2023-04-03T09:10:40;10.00;;;3.10;;
57535;SDS011;43361;49.790;8.960;2023-04-03T09:20:45;8.38;;;3.13;;
57535;SDS011;43361;49.790;8.960;2023-04-03T09:30:46;7.38;;;2.70;;
57535;SDS011;43361;49.790;8.960;2023-04-03T09:40:48;7.03;;;2.38;;
57535;SDS011;43361;49.790;8.960;2023-04-03T09:50:53;6.30;;;2.63;;
57535;SDS011;43361;49.790;8.960;2023-04-03T10:00:57;6.50;;;2.40;;
57535;SDS011;43361;49.790;8.960;2023-04-03T10:11:06;5.63;;;2.80;;
57535;SDS011;43361;49.790;8.960;2023-04-03T10:21:10;6.47;;;2.35;;
57535;SDS011;43361;49.790;8.960;2023-04-03T10:31:15;8.05;;;2.75;;
57535;SDS011;43361;49.790;8.960;2023-04-03T10:41:20;7.03;;;2.38;;
57535;SDS011;43361;49.790;8.960;2023-04-03T10:51:23;8.65;;;2.22;;
57535;SDS011;43361;49.790;8.960;2023-04-03T11:01:29;3.95;;;1.90;;
57535;SDS011;43361;49.790;8.960;2023-04-03T11:11:32;7.30;;;2.30;;
57535;SDS011;43361;49.790;8.960;2023-04-03T11:21:37;4.00;;;1.98;;
57535;SDS011;43361;49.790;8.960;2023-04-03T11:31:42;6.75;;;1.88;;
57535;SDS011;43361;49.790;8.960;2023-04-03T11:41:47;4.85;;;1.77;;
57535;SDS011;43361;49.790;8.960;2023-04-03T11:51:47;5.55;;;2.28;;
57535;SDS011;43361;49.790;8.960;2023-04-03T12:01:49;4.63;;;1.70;;
57535;SDS011;43361;49.790;8.960;2023-04-03T12:11:50;5.35;;;2.28;;
57535;SDS011;43361;49.790;8.960;2023-04-03T12:22:09;4.18;;;1.77;;
57535;SDS011;43361;49.790;8.960;2023-04-03T12:32:14;4.60;;;2.10;;
57535;SDS011;43361;49.790;8.960;2023-04-03T12:42:23;3.33;;;1.50;;
57535;SDS011;43361;49.790;8.960;2023-04-03T12:52:30;3.55;;;1.60;;
57535;SDS011;43361;49.790;8.960;2023-04-03T13:02:34;2.42;;;1.35;;
57535;SDS011;43361;49.790;8.960;2023-04-03T13:12:35;5.03;;;1.48;;
57535;SDS011;43361;49.790;8.960;2023-04-03T13:22:38;2.85;;;1.30;;
57535;SDS011;43361;49.790;8.960;2023-04-03T13:32:43;4.00;;;1.48;;
57535;SDS011;43361;49.790;8.960;2023-04-03T13:42:45;3.05;;;1.42;;
57535;SDS011;43361;49.790;8.960;2023-04-03T13:52:47;3.35;;;1.20;;
57535;SDS011;43361;49.790;8.960;2023-04-03T14:02:49;3.58;;;1.30;;
57535;SDS011;43361;49.790;8.960;2023-04-03T14:12:50;2.35;;;1.15;;
57535;SDS011;43361;49.790;8.960;2023-04-03T14:22:52;2.72;;;1.20;;
57535;SDS011;43361;49.790;8.960;2023-04-03T14:32:53;2.13;;;0.95;;
57535;SDS011;43361;49.790;8.960;2023-04-03T14:42:55;2.13;;;0.93;;
57535;SDS011;43361;49.790;8.960;2023-04-03T14:52:57;3.28;;;1.00;;
57535;SDS011;43361;49.790;8.960;2023-04-03T15:03:00;3.25;;;1.17;;
57535;SDS011;43361;49.790;8.960;2023-04-03T15:13:00;1.90;;;1.00;;
57535;SDS011;43361;49.790;8.960;2023-04-03T15:23:02;1.73;;;0.73;;
57535;SDS011;43361;49.790;8.960;2023-04-03T15:33:02;2.97;;;1.25;;
57535;SDS011;43361;49.790;8.960;2023-04-03T15:43:04;2.42;;;0.80;;
57535;SDS011;43361;49.790;8.960;2023-04-03T15:53:05;2.72;;;0.70;;
57535;SDS011;43361;49.790;8.960;2023-04-03T16:03:08;3.22;;;1.10;;
57535;SDS011;43361;49.790;8.960;2023-04-03T16:13:09;5.95;;;1.02;;
57535;SDS011;43361;49.790;8.960;2023-04-03T16:23:10;3.40;;;0.95;;
57535;SDS011;43361;49.790;8.960;2023-04-03T16:33:11;10.75;;;4.05;;
57535;SDS011;43361;49.790;8.960;2023-04-03T16:43:13;25.07;;;9.07;;
57535;SDS011;43361;49.790;8.960;2023-04-03T16:53:13;14.50;;;6.38;;
57535;SDS011;43361;49.790;8.960;2023-04-03T17:03:15;16.85;;;5.68;;
57535;SDS011;43361;49.790;8.960;2023-04-03T17:13:16;11.73;;;4.90;;
57535;SDS011;43361;49.790;8.960;2023-04-03T17:23:18;11.82;;;3.70;;
57535;SDS011;43361;49.790;8.960;2023-04-03T17:33:18;9.32;;;3.05;;
57535;SDS011;43361;49.790;8.960;2023-04-03T17:43:20;16.27;;;3.40;;
57535;SDS011;43361;49.790;8.960;2023-04-03T17:53:20;13.20;;;3.35;;
57535;SDS011;43361;49.790;8.960;2023-04-03T18:03:22;6.40;;;1.83;;
57535;SDS011;43361;49.790;8.960;2023-04-03T18:13:22;11.85;;;1.92;;
57535;SDS011;43361;49.790;8.960;2023-04-03T18:23:24;21.95;;;3.58;;
57535;SDS011;43361;49.790;8.960;2023-04-03T18:33:27;15.50;;;2.75;;
57535;SDS011;43361;49.790;8.960;2023-04-03T18:43:29;24.13;;;2.65;;
57535;SDS011;43361;49.790;8.960;2023-04-03T18:53:29;19.15;;;3.63;;
57535;SDS011;43361;49.790;8.960;2023-04-03T19:03:31;19.20;;;3.22;;
57535;SDS011;43361;49.790;8.960;2023-04-03T19:13:32;13.63;;;2.75;;
57535;SDS011;43361;49.790;8.960;2023-04-03T19:23:34;13.07;;;2.30;;
57535;SDS011;43361;49.790;8.960;2023-04-03T19:33:35;12.27;;;3.00;;
57535;SDS011;43361;49.790;8.960;2023-04-03T19:43:37;16.08;;;2.40;;
57535;SDS011;43361;49.790;8.960;2023-04-03T19:53:37;12.00;;;2.60;;
57535;SDS011;43361;49.790;8.960;2023-04-03T20:03:39;9.75;;;2.65;;
57535;SDS011;43361;49.790;8.960;2023-04-03T20:13:41;10.68;;;2.40;;
57535;SDS011;43361;49.790;8.960;2023-04-03T20:23:43;6.55;;;1.98;;
57535;SDS011;43361;49.790;8.960;2023-04-03T20:33:44;10.13;;;2.28;;
57535;SDS011;43361;49.790;8.960;2023-04-03T20:43:46;9.77;;;2.00;;
57535;SDS011;43361;49.790;8.960;2023-04-03T20:53:47;7.50;;;1.77;;
57535;SDS011;43361;49.790;8.960;2023-04-03T21:03:49;7.78;;;1.73;;
57535;SDS011;43361;49.790;8.960;2023-04-03T21:24:14;5.90;;;1.80;;
57535;SDS011;43361;49.790;8.960;2023-04-03T21:34:15;5.65;;;1.30;;
57535;SDS011;43361;49.790;8.960;2023-04-03T21:44:17;5.47;;;1.65;;
57535;SDS011;43361;49.790;8.960;2023-04-03T21:54:18;4.97;;;1.50;;
57535;SDS011;43361;49.790;8.960;2023-04-03T22:04:20;5.10;;;1.73;;
57535;SDS011;43361;49.790;8.960;2023-04-03T22:14:21;7.10;;;1.98;;
57535;SDS011;43361;49.790;8.960;2023-04-03T22:24:23;5.80;;;1.83;;
57535;SDS011;43361;49.790;8.960;2023-04-03T22:34:23;3.55;;;1.50;;
57535;SDS011;43361;49.790;8.960;2023-04-03T22:44:25;4.43;;;1.63;;
57535;SDS011;43361;49.790;8.960;2023-04-03T22:54:26;4.05;;;1.25;;
57535;SDS011;43361;49.790;8.960;2023-04-03T23:04:27;3.58;;;1.30;;
57535;SDS011;43361;49.790;8.960;2023-04-03T23:14:28;3.88;;;1.13;;
57535;SDS011;43361;49.790;8.960;2023-04-03T23:24:30;3.53;;;1.00;;
57535;SDS011;43361;49.790;8.960;2023-04-03T23:34:31;5.32;;;1.20;;
57535;SDS011;43361;49.790;8.960;2023-04-03T23:44:32;3.88;;;1.40;;
57535;SDS011;43361;49.790;8.960;2023-04-03T23:54:33;6.18;;;1.35;;
